DAOO/ORN METAR and TAF weather

Enter ICAO airport designator
Station Type Date Time Source
DAOO METAR 2019/02/23 16:30 UTC NOAA

DAOO 231630Z 34008KT CAVOK 17/10 Q1025


Station Type Date Time Source
DAOO Decoded METAR 2019/02/23 16:30 UTC NOAA

Oran / Es Senia, Algeria (DAOO) 35-38N 000-36W 90M
Feb 23, 2019 - 11:30 AM EST / 2019.02.23 1630 UTC
Wind: from the NNW (340 degrees) at 9 MPH (8 KT):0
Visibility: greater than 7 mile(s):0
Temperature: 62 F (17 C)
Dew Point: 50 F (10 C)
Relative Humidity: 63%
Pressure (altimeter): 30.27 in. Hg (1025 hPa)
ob: DAOO 231630Z 34008KT CAVOK 17/10 Q1025
cycle: 16

Station Type Date Time Source
DAOO TAF 2019/02/23 12:33 UTC NOAA

TAF DAOO 231100Z 2312/2412 26008KT CAVOK
BECMG 2320/2323 VRB02KT 8000 NSC
TEMPO 2322/2408 3000 BR
BECMG 2409/2411 21008KT CAVOK


Example: see airport list